createdAt,value
2023-04-05T00:00:48.355Z,4.22
2023-04-05T00:03:19.010Z,7.10
2023-04-05T00:05:50.388Z,6.70
2023-04-05T00:08:24.201Z,7.03
2023-04-05T00:10:51.799Z,6.15
2023-04-05T00:13:19.543Z,6.55
2023-04-05T00:15:48.038Z,5.80
2023-04-05T00:18:22.090Z,6.55
2023-04-05T00:20:53.400Z,6.88
2023-04-05T00:23:25.858Z,5.88
2023-04-05T00:25:53.473Z,6.22
2023-04-05T00:28:21.230Z,5.70
2023-04-05T00:30:48.689Z,5.30
2023-04-05T00:33:16.461Z,4.90
2023-04-05T00:35:44.021Z,5.80
2023-04-05T00:38:11.540Z,6.28
2023-04-05T00:40:39.469Z,5.20
2023-04-05T00:43:07.470Z,5.10
2023-04-05T00:45:34.954Z,5.80
2023-04-05T00:48:02.493Z,5.93
2023-04-05T00:50:33.268Z,6.25
2023-04-05T00:53:01.814Z,5.85
2023-04-05T00:55:29.718Z,5.63
2023-04-05T00:57:57.415Z,6.57
2023-04-05T01:00:26.677Z,5.13
2023-04-05T01:03:02.052Z,5.65
2023-04-05T01:05:44.660Z,4.32
2023-04-05T01:08:33.583Z,4.10
2023-04-05T01:11:06.012Z,4.43
2023-04-05T01:13:33.864Z,5.07
2023-04-05T01:16:01.533Z,4.30
2023-04-05T01:18:31.428Z,4.55
2023-04-05T01:21:26.055Z,4.57
2023-04-05T01:24:21.428Z,5.10
2023-04-05T01:27:10.253Z,4.78
2023-04-05T01:30:10.205Z,4.55
2023-04-05T01:33:06.473Z,4.40
2023-04-05T01:35:49.888Z,5.13
2023-04-05T01:38:21.926Z,7.07
2023-04-05T01:40:50.012Z,6.70
2023-04-05T01:43:18.500Z,7.15
2023-04-05T01:45:47.184Z,7.45
2023-04-05T01:48:15.543Z,6.95
2023-04-05T01:50:51.836Z,6.15
2023-04-05T01:53:19.489Z,6.72
2023-04-05T01:55:46.941Z,6.05
2023-04-05T01:58:14.434Z,5.40
2023-04-05T02:00:42.268Z,6.35
2023-04-05T02:03:10.226Z,6.05
2023-04-05T02:05:37.893Z,6.15
2023-04-05T02:08:05.833Z,6.13
2023-04-05T02:10:33.538Z,7.43
2023-04-05T02:13:01.348Z,7.07
2023-04-05T02:15:30.721Z,8.63
2023-04-05T02:18:02.505Z,7.55
2023-04-05T02:20:30.357Z,7.90
2023-04-05T02:22:58.771Z,7.55
2023-04-05T02:25:26.654Z,7.00
2023-04-05T02:27:54.067Z,7.90
2023-04-05T02:30:22.078Z,6.70
2023-04-05T02:32:49.589Z,7.03
2023-04-05T02:35:17.668Z,6.57
2023-04-05T02:37:45.225Z,7.38
2023-04-05T02:40:15.633Z,9.13
2023-04-05T02:42:43.212Z,9.13
2023-04-05T02:45:11.409Z,6.55
2023-04-05T02:47:38.971Z,9.30
2023-04-05T02:50:07.444Z,8.73
2023-04-05T02:52:42.370Z,7.50
2023-04-05T02:55:10.090Z,7.47
2023-04-05T02:57:37.716Z,7.45
2023-04-05T03:00:21.241Z,8.05
2023-04-05T03:02:49.116Z,7.38
2023-04-05T03:05:18.999Z,8.65
2023-04-05T03:07:52.543Z,7.65
2023-04-05T03:10:25.554Z,9.75
2023-04-05T03:12:59.055Z,10.02
2023-04-05T03:15:28.678Z,9.27
2023-04-05T03:17:58.099Z,9.30
2023-04-05T03:20:26.065Z,9.15
2023-04-05T03:22:58.043Z,8.70
2023-04-05T03:25:30.080Z,9.23
2023-04-05T03:27:58.338Z,8.63
2023-04-05T03:30:31.075Z,7.95
2023-04-05T03:33:06.491Z,9.13
2023-04-05T03:35:46.335Z,8.73
2023-04-05T03:38:14.969Z,8.73
2023-04-05T03:40:55.130Z,7.85
2023-04-05T03:43:22.608Z,8.30
2023-04-05T03:45:50.106Z,8.65
2023-04-05T03:48:20.504Z,8.90
2023-04-05T03:50:49.688Z,8.70
2023-04-05T03:53:18.454Z,7.95
2023-04-05T03:55:50.697Z,9.05
2023-04-05T03:58:22.577Z,8.30
2023-04-05T04:00:50.803Z,7.95
2023-04-05T04:03:21.552Z,7.43
2023-04-05T04:05:52.792Z,8.48
2023-04-05T04:08:21.542Z,8.68
2023-04-05T04:10:50.140Z,7.43
2023-04-05T04:13:37.748Z,7.03
2023-04-05T04:16:28.603Z,7.10
2023-04-05T04:19:14.720Z,7.18
2023-04-05T04:22:05.187Z,7.35
2023-04-05T04:24:53.899Z,7.63
2023-04-05T04:27:31.816Z,7.93
2023-04-05T04:30:22.901Z,8.35
2023-04-05T04:33:10.626Z,7.30
2023-04-05T04:36:13.991Z,7.93
2023-04-05T04:38:59.554Z,6.90
2023-04-05T04:41:50.819Z,7.40
2023-04-05T04:44:31.644Z,5.18
2023-04-05T04:47:22.371Z,4.60
2023-04-05T04:50:07.755Z,4.10
2023-04-05T04:52:35.459Z,3.85
2023-04-05T04:55:03.305Z,4.75
2023-04-05T04:57:31.047Z,4.47
2023-04-05T04:59:58.570Z,4.00
2023-04-05T05:02:29.815Z,4.20
2023-04-05T05:04:58.555Z,4.38
2023-04-05T05:07:26.244Z,4.65
2023-04-05T05:09:54.778Z,4.60
2023-04-05T05:12:23.944Z,4.43
2023-04-05T05:14:51.428Z,4.30
2023-04-05T05:17:21.128Z,4.65
2023-04-05T05:19:48.592Z,4.35
2023-04-05T05:22:16.512Z,4.40
2023-04-05T05:24:45.502Z,4.28
2023-04-05T05:27:13.210Z,5.30
2023-04-05T05:29:40.834Z,4.28
2023-04-05T05:32:09.778Z,4.50
2023-04-05T05:34:37.951Z,4.63
2023-04-05T05:37:06.286Z,4.90
2023-04-05T05:39:33.682Z,5.22
2023-04-05T05:42:01.180Z,5.10
2023-04-05T05:44:29.643Z,4.65
2023-04-05T05:46:57.424Z,4.70
2023-04-05T05:49:25.464Z,4.60
2023-04-05T05:51:57.116Z,3.65
2023-04-05T05:54:25.875Z,4.25
2023-04-05T05:56:53.372Z,4.07
2023-04-05T05:59:21.016Z,4.47
2023-04-05T06:01:49.168Z,4.38
2023-04-05T06:04:16.979Z,3.63
2023-04-05T06:06:47.828Z,3.38
2023-04-05T06:09:16.353Z,3.45
2023-04-05T06:11:55.299Z,3.50
2023-04-05T06:14:24.516Z,3.00
2023-04-05T06:16:52.495Z,3.10
2023-04-05T06:19:20.033Z,3.10
2023-04-05T06:21:47.529Z,3.05
2023-04-05T06:24:15.047Z,1.63
2023-04-05T06:26:42.502Z,2.22
2023-04-05T06:29:10.262Z,2.00
2023-04-05T06:31:38.374Z,1.73
2023-04-05T06:34:06.197Z,1.52
2023-04-05T06:36:34.573Z,1.90
2023-04-05T06:39:02.309Z,1.70
2023-04-05T06:41:29.865Z,1.50
2023-04-05T06:43:57.352Z,1.60
2023-04-05T06:46:25.121Z,2.20
2023-04-05T06:48:53.670Z,1.45
2023-04-05T06:51:21.356Z,1.55
2023-04-05T06:53:48.813Z,1.52
2023-04-05T06:56:16.322Z,1.20
2023-04-05T06:58:44.527Z,1.40
2023-04-05T07:01:12.476Z,1.30
2023-04-05T07:03:40.148Z,1.50
2023-04-05T07:06:10.018Z,1.45
2023-04-05T07:08:37.914Z,1.50
2023-04-05T07:11:05.377Z,1.40
2023-04-05T07:13:32.859Z,5.05
2023-04-05T07:16:01.984Z,1.05
2023-04-05T07:18:30.433Z,1.20
2023-04-05T07:21:04.272Z,2.10
2023-04-05T07:23:32.110Z,1.20
2023-04-05T07:26:07.723Z,1.13
2023-04-05T07:28:36.166Z,1.50
2023-04-05T07:31:08.118Z,1.10
2023-04-05T07:33:35.727Z,1.00
2023-04-05T07:36:03.754Z,1.35
2023-04-05T07:38:31.302Z,1.00
2023-04-05T07:40:59.048Z,1.20
2023-04-05T07:43:26.740Z,1.27
2023-04-05T07:46:02.486Z,1.40
2023-04-05T07:48:30.231Z,1.10
2023-04-05T07:50:58.130Z,1.30
2023-04-05T07:53:26.152Z,1.40
2023-04-05T07:55:53.904Z,1.20
2023-04-05T07:58:22.948Z,1.20
2023-04-05T08:00:50.815Z,1.30
2023-04-05T08:03:18.493Z,1.30
2023-04-05T08:05:46.040Z,1.05
2023-04-05T08:08:13.799Z,1.10
2023-04-05T08:10:41.717Z,1.20
2023-04-05T08:13:09.316Z,0.90
2023-04-05T08:15:36.904Z,1.10
2023-04-05T08:18:04.687Z,1.10
2023-04-05T08:20:32.287Z,1.30
2023-04-05T08:22:59.803Z,0.88
2023-04-05T08:25:27.255Z,1.20
2023-04-05T08:27:54.791Z,0.82
2023-04-05T08:30:23.639Z,0.93
2023-04-05T08:32:51.252Z,1.02
2023-04-05T08:35:18.816Z,0.82
2023-04-05T08:37:47.876Z,1.10
2023-04-05T08:40:15.481Z,0.73
2023-04-05T08:42:47.740Z,0.82
2023-04-05T08:45:19.100Z,0.80
2023-04-05T08:47:49.220Z,0.80
2023-04-05T08:50:16.758Z,0.80
2023-04-05T08:52:50.147Z,0.70
2023-04-05T08:55:17.790Z,0.60
2023-04-05T08:57:53.979Z,0.90
2023-04-05T09:00:21.940Z,0.75
2023-04-05T09:02:54.734Z,1.13
2023-04-05T09:05:24.470Z,0.70
2023-04-05T09:07:52.859Z,1.10
2023-04-05T09:10:21.888Z,0.65
2023-04-05T09:12:51.896Z,0.80
2023-04-05T09:15:24.536Z,0.80
2023-04-05T09:17:53.028Z,0.70
2023-04-05T09:20:21.249Z,0.65
2023-04-05T09:22:48.846Z,1.00
2023-04-05T09:25:36.792Z,0.65
2023-04-05T09:28:04.776Z,0.90
2023-04-05T09:30:33.484Z,1.10
2023-04-05T09:33:02.571Z,1.13
2023-04-05T09:35:34.196Z,0.80
2023-04-05T09:38:03.167Z,0.90
2023-04-05T09:40:43.598Z,1.17
2023-04-05T09:43:12.914Z,1.20
2023-04-05T09:45:42.669Z,1.33
2023-04-05T09:48:10.643Z,1.30
2023-04-05T09:50:38.882Z,1.13
2023-04-05T09:53:16.582Z,0.90
2023-04-05T09:55:46.198Z,1.10
2023-04-05T09:58:19.215Z,1.40
2023-04-05T10:00:59.948Z,1.10
2023-04-05T10:03:31.096Z,1.05
2023-04-05T10:05:58.820Z,1.40
2023-04-05T10:08:26.749Z,1.40
2023-04-05T10:10:56.600Z,1.33
2023-04-05T10:13:24.166Z,1.30
2023-04-05T10:15:55.524Z,1.60
2023-04-05T10:18:29.746Z,1.30
2023-04-05T10:21:00.674Z,1.10
2023-04-05T10:23:35.354Z,1.90
2023-04-05T10:26:20.397Z,1.00
2023-04-05T10:29:02.864Z,0.90
2023-04-05T10:31:38.115Z,1.10
2023-04-05T10:34:19.243Z,0.85
2023-04-05T10:36:54.654Z,0.98
2023-04-05T10:39:35.786Z,1.05
2023-04-05T10:42:21.158Z,1.30
2023-04-05T10:45:00.317Z,0.85
2023-04-05T10:47:29.197Z,0.80
2023-04-05T10:49:59.298Z,0.70
2023-04-05T10:52:27.945Z,0.90
2023-04-05T10:54:58.233Z,1.42
2023-04-05T10:57:26.760Z,1.20
2023-04-05T10:59:55.194Z,1.65
2023-04-05T11:02:23.280Z,1.27
2023-04-05T11:04:57.439Z,0.82
2023-04-05T11:07:25.174Z,1.00
2023-04-05T11:10:02.899Z,0.77
2023-04-05T11:12:48.942Z,0.93
2023-04-05T11:15:28.397Z,0.80
2023-04-05T11:18:12.225Z,0.88
2023-04-05T11:20:53.582Z,0.47
2023-04-05T11:23:25.380Z,0.90
2023-04-05T11:25:56.428Z,0.70
2023-04-05T11:28:44.411Z,0.60
2023-04-05T11:31:21.089Z,0.80
2023-04-05T11:33:55.627Z,1.20
2023-04-05T11:36:42.298Z,0.93
2023-04-05T11:39:19.621Z,0.80
2023-04-05T11:42:04.496Z,0.85
2023-04-05T11:44:47.278Z,1.00
2023-04-05T11:47:18.497Z,0.60
2023-04-05T11:49:50.640Z,0.60
2023-04-05T11:52:21.057Z,1.10
2023-04-05T11:54:49.932Z,0.90
2023-04-05T11:57:23.189Z,1.17
2023-04-05T11:59:52.313Z,0.80
2023-04-05T12:02:20.577Z,0.80
2023-04-05T12:04:56.390Z,0.95
2023-04-05T12:07:28.426Z,1.02
2023-04-05T12:10:14.199Z,1.10
2023-04-05T12:12:43.899Z,0.90
2023-04-05T12:15:14.960Z,1.40
2023-04-05T12:17:50.345Z,1.10
2023-04-05T12:20:27.455Z,1.15
2023-04-05T12:22:56.656Z,1.02
2023-04-05T12:25:25.089Z,0.98
2023-04-05T12:27:53.521Z,1.00
2023-04-05T12:30:23.453Z,0.80
2023-04-05T12:32:53.195Z,0.82
2023-04-05T12:35:33.104Z,0.95
2023-04-05T12:38:03.646Z,1.00
2023-04-05T12:40:33.241Z,1.00
2023-04-05T12:43:08.564Z,1.00
2023-04-05T12:45:44.197Z,1.23
2023-04-05T12:48:22.469Z,1.30
2023-04-05T12:50:55.327Z,1.33
2023-04-05T12:53:25.588Z,1.33
2023-04-05T12:55:55.192Z,1.60
2023-04-05T12:58:42.829Z,1.45
2023-04-05T13:01:11.024Z,1.50
2023-04-05T13:03:38.603Z,1.60
2023-04-05T13:06:06.152Z,1.70
2023-04-05T13:08:33.688Z,1.40
2023-04-05T13:11:01.431Z,1.67
2023-04-05T13:13:28.904Z,1.55
2023-04-05T13:15:56.420Z,1.20
2023-04-05T13:18:23.986Z,1.30
2023-04-05T13:20:51.374Z,1.52
2023-04-05T13:23:18.960Z,1.25
2023-04-05T13:25:46.431Z,1.70
2023-04-05T13:28:14.011Z,2.08
2023-04-05T13:30:41.760Z,1.38
2023-04-05T13:33:09.342Z,1.20
2023-04-05T13:35:37.172Z,1.02
2023-04-05T13:38:06.018Z,1.00
2023-04-05T13:40:33.511Z,1.10
2023-04-05T13:43:01.522Z,1.10
2023-04-05T13:45:29.212Z,1.35
2023-04-05T13:47:56.694Z,1.50
2023-04-05T13:50:25.104Z,1.25
2023-04-05T13:52:52.927Z,1.38
2023-04-05T13:55:20.849Z,1.27
2023-04-05T13:57:48.343Z,1.42
2023-04-05T14:00:16.545Z,1.52
2023-04-05T14:02:44.422Z,1.70
2023-04-05T14:05:12.057Z,1.70
2023-04-05T14:07:39.748Z,1.83
2023-04-05T14:10:07.719Z,1.63
2023-04-05T14:12:35.623Z,1.52
2023-04-05T14:15:03.352Z,1.63
2023-04-05T14:17:31.247Z,1.58
2023-04-05T14:19:58.812Z,1.58
2023-04-05T14:22:26.523Z,1.67
2023-04-05T14:24:54.090Z,1.80
2023-04-05T14:27:27.107Z,2.00
2023-04-05T14:29:59.082Z,2.03
2023-04-05T14:32:26.702Z,2.10
2023-04-05T14:34:54.354Z,2.13
2023-04-05T14:37:21.820Z,2.70
2023-04-05T14:39:49.350Z,2.40
2023-04-05T14:42:16.827Z,2.40
2023-04-05T14:44:44.427Z,2.17
2023-04-05T14:47:12.025Z,2.22
2023-04-05T14:49:39.549Z,2.30
2023-04-05T14:52:07.196Z,2.40
2023-04-05T14:54:34.975Z,2.15
2023-04-05T14:57:02.604Z,1.90
2023-04-05T14:59:31.171Z,2.58
2023-04-05T15:01:58.750Z,2.17
2023-04-05T15:04:26.438Z,2.20
2023-04-05T15:06:54.084Z,2.20
2023-04-05T15:09:21.761Z,2.22
2023-04-05T15:11:49.354Z,2.95
2023-04-05T15:14:28.613Z,2.50
2023-04-05T15:16:58.546Z,3.15
2023-04-05T15:19:26.242Z,2.85
2023-04-05T15:21:53.787Z,2.40
2023-04-05T15:24:21.527Z,2.75
2023-04-05T15:26:49.089Z,2.53
2023-04-05T15:29:16.553Z,2.10
2023-04-05T15:31:44.079Z,2.05
2023-04-05T15:34:11.674Z,2.47
2023-04-05T15:36:39.600Z,2.22
2023-04-05T15:39:07.603Z,2.35
2023-04-05T15:41:35.415Z,2.42
2023-04-05T15:44:04.087Z,2.42
2023-04-05T15:46:31.831Z,2.78
2023-04-05T15:48:59.769Z,2.70
2023-04-05T15:51:27.950Z,4.40
2023-04-05T15:53:55.706Z,3.50
2023-04-05T15:56:23.705Z,3.60
2023-04-05T15:58:51.263Z,4.40
2023-04-05T16:01:19.144Z,5.07
2023-04-05T16:03:47.109Z,5.50
2023-04-05T16:06:14.841Z,6.00
2023-04-05T16:08:42.498Z,8.38
2023-04-05T16:11:10.133Z,6.75
2023-04-05T16:13:37.999Z,6.60
2023-04-05T16:16:07.057Z,6.47
2023-04-05T16:18:34.710Z,6.60
2023-04-05T16:21:02.387Z,5.30
2023-04-05T16:23:30.014Z,4.78
2023-04-05T16:25:57.602Z,6.07
2023-04-05T16:28:25.130Z,4.03
2023-04-05T16:30:53.040Z,4.90
2023-04-05T16:33:20.572Z,6.85
2023-04-05T16:35:49.003Z,6.50
2023-04-05T16:38:16.638Z,6.03
2023-04-05T16:40:44.880Z,6.78
2023-04-05T16:43:12.451Z,6.13
2023-04-05T16:45:40.052Z,6.88
2023-04-05T16:48:09.075Z,5.57
2023-04-05T16:50:37.832Z,5.80
2023-04-05T16:53:05.535Z,5.78
2023-04-05T16:55:33.072Z,5.30
2023-04-05T16:58:00.864Z,5.30
2023-04-05T17:00:29.430Z,7.60
2023-04-05T17:02:57.208Z,6.57
2023-04-05T17:05:25.117Z,6.40
2023-04-05T17:07:53.707Z,5.45
2023-04-05T17:10:21.540Z,6.15
2023-04-05T17:12:49.131Z,8.30
2023-04-05T17:15:17.115Z,10.43
2023-04-05T17:17:44.734Z,8.00
2023-04-05T17:20:12.889Z,7.43
2023-04-05T17:22:41.811Z,5.93
2023-04-05T17:25:09.659Z,7.90
2023-04-05T17:27:37.206Z,8.20
2023-04-05T17:30:05.552Z,8.77
2023-04-05T17:32:35.102Z,8.45
2023-04-05T17:35:02.726Z,7.25
2023-04-05T17:37:30.862Z,8.13
2023-04-05T17:39:58.399Z,6.95
2023-04-05T17:42:25.996Z,7.07
2023-04-05T17:44:55.419Z,6.93
2023-04-05T17:47:24.278Z,7.40
2023-04-05T17:49:51.973Z,5.90
2023-04-05T17:52:20.609Z,5.32
2023-04-05T17:54:48.252Z,5.47
2023-04-05T17:57:18.420Z,4.55
2023-04-05T17:59:46.038Z,5.10
2023-04-05T18:02:13.821Z,5.88
2023-04-05T18:04:41.415Z,5.40
2023-04-05T18:07:09.117Z,5.30
2023-04-05T18:09:38.778Z,5.60
2023-04-05T18:12:07.031Z,4.68
2023-04-05T18:14:36.602Z,4.93
2023-04-05T18:17:07.833Z,5.70
2023-04-05T18:19:35.826Z,5.63
2023-04-05T18:22:03.474Z,5.30
2023-04-05T18:24:31.614Z,5.28
2023-04-05T18:26:59.397Z,4.50
2023-04-05T18:29:31.215Z,4.40
2023-04-05T18:31:59.350Z,4.30
2023-04-05T18:34:27.253Z,4.70
2023-04-05T18:36:54.804Z,4.72
2023-04-05T18:39:22.389Z,4.18
2023-04-05T18:41:50.144Z,4.05
2023-04-05T18:44:17.725Z,4.00
2023-04-05T18:46:45.656Z,4.35
2023-04-05T18:49:16.348Z,4.53
2023-04-05T18:51:43.919Z,3.83
2023-04-05T18:54:11.678Z,3.60
2023-04-05T18:56:39.222Z,3.58
2023-04-05T18:59:07.108Z,3.40
2023-04-05T19:01:34.826Z,2.95
2023-04-05T19:04:02.424Z,3.00
2023-04-05T19:06:30.263Z,3.60
2023-04-05T19:09:03.140Z,3.10
2023-04-05T19:11:30.878Z,3.00
2023-04-05T19:14:00.674Z,3.50
2023-04-05T19:16:28.406Z,3.30
2023-04-05T19:19:07.784Z,2.60
2023-04-05T19:21:35.772Z,2.90
2023-04-05T19:24:03.424Z,2.90
2023-04-05T19:26:32.514Z,2.85
2023-04-05T19:29:25.591Z,2.90
2023-04-05T19:32:01.357Z,2.90
2023-04-05T19:34:29.102Z,3.10
2023-04-05T19:36:56.833Z,2.88
2023-04-05T19:39:25.749Z,2.63
2023-04-05T19:41:53.446Z,3.10
2023-04-05T19:44:39.536Z,3.05
2023-04-05T19:47:11.401Z,3.15
2023-04-05T19:49:42.755Z,3.40
2023-04-05T19:52:13.330Z,3.05
2023-04-05T19:54:43.917Z,2.83
2023-04-05T19:57:18.133Z,2.70
2023-04-05T19:59:46.284Z,3.08
2023-04-05T20:02:37.092Z,3.50
2023-04-05T20:05:14.597Z,3.90
2023-04-05T20:07:42.479Z,3.83
2023-04-05T20:10:21.177Z,4.50
2023-04-05T20:12:49.823Z,3.90
2023-04-05T20:15:36.248Z,4.38
2023-04-05T20:18:06.961Z,3.72
2023-04-05T20:20:34.782Z,3.33
2023-04-05T20:23:07.695Z,3.72
2023-04-05T20:25:42.287Z,3.35
2023-04-05T20:28:38.360Z,3.60
2023-04-05T20:31:18.086Z,3.88
2023-04-05T20:33:50.449Z,3.60
2023-04-05T20:36:20.969Z,3.55
2023-04-05T20:38:50.096Z,3.45
2023-04-05T20:41:20.041Z,3.50
2023-04-05T20:43:47.925Z,3.40
2023-04-05T20:46:16.773Z,3.35
2023-04-05T20:48:45.394Z,3.20
2023-04-05T20:51:14.299Z,3.60
2023-04-05T20:53:42.286Z,3.20
2023-04-05T20:56:11.588Z,3.40
2023-04-05T20:58:40.838Z,3.58
2023-04-05T21:01:10.037Z,3.58
2023-04-05T21:03:40.535Z,3.63
2023-04-05T21:06:09.877Z,3.40
2023-04-05T21:08:39.246Z,3.17
2023-04-05T21:11:07.973Z,3.30
2023-04-05T21:13:36.073Z,3.13
2023-04-05T21:16:04.153Z,3.40
2023-04-05T21:18:31.785Z,2.97
2023-04-05T21:21:00.864Z,3.10
2023-04-05T21:23:29.840Z,3.50
2023-04-05T21:25:59.077Z,3.10
2023-04-05T21:28:27.326Z,3.50
2023-04-05T21:30:55.038Z,3.95
2023-04-05T21:33:22.822Z,3.42
2023-04-05T21:35:51.122Z,3.60
2023-04-05T21:38:18.944Z,3.45
2023-04-05T21:40:46.438Z,3.40
2023-04-05T21:43:14.032Z,3.05
2023-04-05T21:45:41.640Z,3.60
2023-04-05T21:48:09.232Z,3.70
2023-04-05T21:50:37.732Z,3.95
2023-04-05T21:53:07.494Z,4.10
2023-04-05T21:55:35.159Z,4.75
2023-04-05T21:58:02.750Z,5.20
2023-04-05T22:00:30.290Z,4.97
2023-04-05T22:02:58.038Z,5.30
2023-04-05T22:05:36.415Z,5.28
2023-04-05T22:08:07.006Z,4.78
2023-04-05T22:10:36.028Z,4.38
2023-04-05T22:13:03.723Z,4.70
2023-04-05T22:15:31.434Z,4.00
2023-04-05T22:17:59.138Z,4.28
2023-04-05T22:20:26.838Z,3.88
2023-04-05T22:22:54.421Z,3.60
2023-04-05T22:25:22.131Z,3.80
2023-04-05T22:27:49.862Z,3.35
2023-04-05T22:30:17.487Z,3.70
2023-04-05T22:32:45.635Z,4.03
2023-04-05T22:35:13.164Z,4.18
2023-04-05T22:37:41.078Z,3.65
2023-04-05T22:40:09.596Z,3.67
2023-04-05T22:42:38.491Z,3.90
2023-04-05T22:45:07.724Z,3.85
2023-04-05T22:47:35.788Z,3.60
2023-04-05T22:50:03.351Z,3.38
2023-04-05T22:52:31.122Z,3.47
2023-04-05T22:54:58.639Z,3.30
2023-04-05T22:57:26.414Z,3.20
2023-04-05T22:59:54.034Z,3.40
2023-04-05T23:02:23.238Z,3.10
2023-04-05T23:04:53.475Z,2.80
2023-04-05T23:07:21.031Z,3.10
2023-04-05T23:09:48.670Z,2.90
2023-04-05T23:12:16.703Z,2.83
2023-04-05T23:14:44.275Z,3.03
2023-04-05T23:17:12.016Z,3.13
2023-04-05T23:19:39.457Z,2.65
2023-04-05T23:22:07.147Z,3.00
2023-04-05T23:24:34.758Z,2.95
2023-04-05T23:27:02.397Z,3.03
2023-04-05T23:29:29.899Z,3.10
2023-04-05T23:31:57.525Z,3.30
2023-04-05T23:34:25.115Z,3.00
2023-04-05T23:36:52.681Z,2.85
2023-04-05T23:39:20.239Z,3.17
2023-04-05T23:41:47.877Z,3.17
2023-04-05T23:44:16.157Z,3.13
2023-04-05T23:46:43.658Z,3.00
2023-04-05T23:49:11.282Z,3.10
2023-04-05T23:51:38.885Z,3.20
2023-04-05T23:54:06.717Z,2.80
2023-04-05T23:56:38.203Z,3.60
2023-04-05T23:59:05.902Z,3.45
